Time;durP1;ratioP1;P1;durP2;ratioP2;P2;SDS_P1;SDS_P2;PMS_P1;PMS_P2;Temp;Humidity;BMP_temperature;BMP_pressure;BME280_temperature;BME280_humidity;BME280_pressure;Samples;Min_cycle;Max_cycle;Signal;HPM_P1;HPM_P2
2021/03/09 00:01:23;;;;;;;6.10;3.30;;;;;;;-2.41;100.00;99725.97;1726584;83;21012;-76
2021/03/09 00:03:51;;;;;;;2.80;2.37;;;;;;;-2.38;100.00;99737.70;1726490;83;21021;-76
2021/03/09 00:06:19;;;;;;;4.67;2.80;;;;;;;-2.37;100.00;99735.94;1726614;83;21705;-75
2021/03/09 00:08:47;;;;;;;3.07;2.67;;;;;;;-2.36;100.00;99737.62;1726619;82;21591;-75
2021/03/09 00:11:15;;;;;;;2.33;2.23;;;;;;;-2.38;100.00;99744.33;1726740;83;21551;-76
2021/03/09 00:13:43;;;;;;;3.67;2.27;;;;;;;-2.38;100.00;99732.89;1726455;83;21041;-76
2021/03/09 00:16:11;;;;;;;2.07;1.87;;;;;;;-2.40;100.00;99734.80;1726481;83;21562;-75
2021/03/09 00:18:38;;;;;;;3.63;1.80;;;;;;;-2.40;100.00;99732.14;1726570;83;21388;-75
2021/03/09 00:21:06;;;;;;;4.37;3.00;;;;;;;-2.40;100.00;99730.82;1726425;83;20965;-75
2021/03/09 00:23:35;;;;;;;3.13;2.27;;;;;;;-2.40;100.00;99731.66;1726463;83;21167;-75
2021/03/09 00:26:03;;;;;;;5.30;3.53;;;;;;;-2.41;100.00;99728.63;1726610;83;21057;-75
2021/03/09 00:28:31;;;;;;;3.20;2.53;;;;;;;-2.39;100.00;99728.08;1749065;80;21001;-75
2021/03/09 00:30:59;;;;;;;3.13;2.53;;;;;;;-2.41;100.00;99729.95;1793412;80;21203;-75
2021/03/09 00:33:27;;;;;;;4.53;2.60;;;;;;;-2.42;100.00;99730.91;1762630;80;20963;-74
2021/03/09 00:35:56;;;;;;;2.10;1.23;;;;;;;-2.47;100.00;99732.99;1742959;82;21576;-76
2021/03/09 00:38:24;;;;;;;1.07;1.03;;;;;;;-2.52;100.00;99726.65;1762084;81;21020;-76
2021/03/09 00:40:52;;;;;;;1.33;1.23;;;;;;;-2.56;100.00;99731.77;1759953;81;21020;-75
2021/03/09 00:43:19;;;;;;;2.80;1.50;;;;;;;-2.61;100.00;99725.91;1730256;83;21576;-75
2021/03/09 00:45:47;;;;;;;2.30;1.53;;;;;;;-2.63;100.00;99725.16;1762065;81;20953;-75
2021/03/09 00:48:16;;;;;;;2.20;1.17;;;;;;;-2.66;100.00;99727.98;1761760;81;20945;-75
2021/03/09 00:50:44;;;;;;;1.60;1.50;;;;;;;-2.68;100.00;99724.09;1759916;81;20977;-75
2021/03/09 00:53:11;;;;;;;2.07;1.87;;;;;;;-2.68;100.00;99714.00;1730276;82;21631;-75
2021/03/09 00:55:39;;;;;;;1.43;1.33;;;;;;;-2.70;100.00;99731.77;1762061;81;21303;-75
2021/03/09 00:58:07;;;;;;;0.90;0.90;;;;;;;-2.72;100.00;99733.19;1761809;81;21514;-75
2021/03/09 01:00:35;;;;;;;0.87;0.87;;;;;;;-2.74;100.00;99736.41;1760074;81;21587;-75
2021/03/09 01:03:04;;;;;;;1.67;1.23;;;;;;;-2.74;100.00;99731.59;1730195;81;21018;-75
2021/03/09 01:05:33;;;;;;;4.33;1.57;;;;;;;-2.75;100.00;99738.66;1762236;81;21623;-75
2021/03/09 01:08:01;;;;;;;3.43;1.53;;;;;;;-2.76;100.00;99738.30;1762050;81;21809;-75
2021/03/09 01:10:29;;;;;;;1.30;1.13;;;;;;;-2.79;100.00;99734.51;1759920;80;21044;-74
2021/03/09 01:12:57;;;;;;;1.00;1.00;;;;;;;-2.82;100.00;99748.40;1730484;83;20995;-76
2021/03/09 01:15:25;;;;;;;0.80;0.80;;;;;;;-2.89;100.00;99748.75;1762180;81;20993;-76
2021/03/09 01:17:55;;;;;;;1.10;1.00;;;;;;;-2.95;100.00;99754.43;1761931;81;21040;-75
2021/03/09 01:20:22;;;;;;;1.20;1.10;;;;;;;-3.00;100.00;99756.98;1760220;81;21993;-75
2021/03/09 01:22:51;;;;;;;0.37;0.37;;;;;;;-3.07;100.00;99752.03;1730331;83;21567;-74
2021/03/09 01:25:20;;;;;;;1.17;1.07;;;;;;;-3.13;100.00;99760.83;1762191;80;21045;-76
2021/03/09 01:27:48;;;;;;;0.87;0.87;;;;;;;-3.20;100.00;99758.17;1761998;80;21601;-75
2021/03/09 01:30:19;;;;;;;3.93;1.23;;;;;;;-3.25;100.00;99765.88;1788238;80;20989;-76
2021/03/09 01:32:47;;;;;;;0.70;0.70;;;;;;;-3.31;100.00;99759.64;1762344;81;21359;-75
2021/03/09 01:35:15;;;;;;;0.70;0.70;;;;;;;-3.36;100.00;99757.73;1767358;80;21566;-74
2021/03/09 01:37:43;;;;;;;2.37;1.73;;;;;;;-3.40;100.00;99756.67;1818866;79;20941;-76
2021/03/09 01:40:12;;;;;;;0.80;0.80;;;;;;;-3.45;100.00;99761.77;1786512;80;20970;-76
2021/03/09 01:42:40;;;;;;;1.67;1.00;;;;;;;-3.48;100.00;99761.09;1798497;79;20980;-75
2021/03/09 01:45:09;;;;;;;0.70;0.70;;;;;;;-3.53;100.00;99768.43;1786661;80;21192;-76
2021/03/09 01:47:44;;;;;;;1.00;1.00;;;;;;;-3.57;100.00;99770.41;1797646;79;21634;-76
2021/03/09 01:50:13;;;;;;;1.17;1.17;;;;;;;-3.62;100.00;99778.58;1786728;80;21076;-75
2021/03/09 01:52:42;;;;;;;2.60;2.40;;;;;;;-3.67;100.00;99777.98;1797804;79;20981;-76
2021/03/09 01:55:11;;;;;;;3.30;3.00;;;;;;;-3.72;100.00;99781.39;1786678;80;21602;-76
2021/03/09 01:57:41;;;;;;;6.13;5.53;;;;;;;-3.76;100.00;99777.67;1797846;79;21203;-76
2021/03/09 02:00:10;;;;;;;38.50;28.37;;;;;;;-3.81;100.00;99775.28;1786574;80;21037;-76
2021/03/09 02:02:41;;;;;;;11.80;7.65;;;;;;;-3.85;100.00;99777.23;1798116;79;20974;-75
2021/03/09 02:05:12;;;;;;;15.70;11.10;;;;;;;-3.90;100.00;99787.20;1786686;80;21551;-75
2021/03/09 02:07:40;;;;;;;16.40;10.77;;;;;;;-3.94;100.00;99784.84;1797706;79;21052;-75
2021/03/09 02:10:10;;;;;;;8.40;5.57;;;;;;;-3.98;100.00;99784.16;1786599;80;21773;-76
2021/03/09 02:13:05;;;;;;;3.20;2.90;;;;;;;-4.00;100.00;99790.00;1773344;79;20933;-76
2021/03/09 02:15:57;;;;;;;18.07;13.37;;;;;;;-4.02;100.00;99788.77;1845710;76;22826;-75
2021/03/09 02:18:42;;;;;;;6.70;5.40;;;;;;;-4.08;100.00;99792.20;1815768;79;20988;-76
2021/03/09 02:21:34;;;;;;;7.80;5.90;;;;;;;-4.13;100.00;99792.92;1815667;79;21896;-76
2021/03/09 02:24:16;;;;;;;3.47;2.67;;;;;;;-4.15;100.00;99801.40;1815623;79;21071;-76
2021/03/09 02:27:06;;;;;;;3.87;3.33;;;;;;;-4.18;100.00;99803.72;1809103;77;20970;-75
2021/03/09 02:29:49;;;;;;;2.40;2.20;;;;;;;-4.21;100.00;99807.87;1727908;81;21005;-74
2021/03/09 02:32:23;;;;;;;1.77;1.67;;;;;;;-4.18;100.00;99814.28;1852263;76;22197;-76
2021/03/09 02:34:57;;;;;;;5.83;3.20;;;;;;;-4.22;100.00;99816.71;1782753;80;21054;-75
2021/03/09 02:37:30;;;;;;;3.57;2.60;;;;;;;-4.25;100.00;99818.19;1855556;77;22277;-76
2021/03/09 02:39:58;;;;;;;2.15;1.95;;;;;;;-4.25;100.00;99820.38;1855524;77;20993;-75
2021/03/09 02:42:27;;;;;;;2.50;2.30;;;;;;;-4.25;100.00;99819.51;1855442;77;20984;-75
2021/03/09 02:44:58;;;;;;;1.47;1.37;;;;;;;-4.26;100.00;99821.30;1855603;77;20925;-75
2021/03/09 02:47:26;;;;;;;0.87;0.87;;;;;;;-4.24;100.00;99827.35;1855475;77;21009;-75
2021/03/09 02:49:55;;;;;;;1.73;1.63;;;;;;;-4.25;100.00;99826.98;1855450;77;22109;-75
2021/03/09 02:52:24;;;;;;;2.23;2.03;;;;;;;-4.25;100.00;99825.66;1836124;77;20922;-76
2021/03/09 02:54:52;;;;;;;1.53;1.30;;;;;;;-4.27;100.00;99827.50;1821826;78;20989;-75
2021/03/09 02:57:20;;;;;;;0.73;0.73;;;;;;;-4.30;100.00;99832.09;1801799;78;21604;-75
2021/03/09 02:59:48;;;;;;;0.93;0.93;;;;;;;-4.31;100.00;99835.69;1821760;78;20996;-75
2021/03/09 03:02:17;;;;;;;2.40;2.07;;;;;;;-4.34;100.00;99836.69;1821921;78;21811;-75
2021/03/09 03:04:48;;;;;;;1.43;1.33;;;;;;;-4.35;100.00;99838.96;1821922;78;21032;-75
2021/03/09 03:07:17;;;;;;;1.43;1.27;;;;;;;-4.36;100.00;99846.48;1821897;78;20973;-75
2021/03/09 03:09:45;;;;;;;1.93;1.80;;;;;;;-4.37;100.00;99845.23;1821918;78;20941;-75
2021/03/09 03:12:14;;;;;;;2.23;2.03;;;;;;;-4.36;100.00;99844.32;1821729;78;21463;-76
2021/03/09 03:14:42;;;;;;;6.90;4.33;;;;;;;-4.36;100.00;99856.20;1821903;78;22108;-76
2021/03/09 03:17:10;;;;;;;3.53;2.10;;;;;;;-4.35;100.00;99855.28;1821851;78;21009;-74
2021/03/09 03:19:39;;;;;;;1.37;1.17;;;;;;;-4.35;100.00;99864.04;1798245;78;21050;-75
2021/03/09 03:22:09;;;;;;;1.10;1.10;;;;;;;-4.34;100.00;99862.25;1821826;78;21551;-75
2021/03/09 03:24:38;;;;;;;1.60;1.37;;;;;;;-4.32;100.00;99873.13;1821748;77;20993;-74
2021/03/09 03:27:06;;;;;;;2.37;1.43;;;;;;;-4.31;100.00;99868.69;1821904;78;21197;-75
2021/03/09 03:29:33;;;;;;;1.47;0.97;;;;;;;-4.30;100.00;99869.94;1821969;78;20972;-75
2021/03/09 03:32:02;;;;;;;1.80;1.70;;;;;;;-4.28;100.00;99876.46;1828110;78;20960;-74
2021/03/09 03:34:30;;;;;;;3.57;2.10;;;;;;;-4.27;100.00;99880.31;1807239;78;20996;-75
2021/03/09 03:36:58;;;;;;;3.33;1.83;;;;;;;-4.23;100.00;99881.03;1790176;80;20966;-76
2021/03/09 03:39:26;;;;;;;2.33;1.50;;;;;;;-4.21;100.00;99871.23;1763800;80;21463;-76
2021/03/09 03:41:55;;;;;;;4.10;2.40;;;;;;;-4.17;100.00;99882.48;1789912;80;20993;-76
2021/03/09 03:44:23;;;;;;;5.07;2.67;;;;;;;-4.15;100.00;99885.42;1789517;80;21005;-75
2021/03/09 03:46:52;;;;;;;7.43;4.80;;;;;;;-4.16;100.00;99887.69;1789349;80;21025;-75
2021/03/09 03:49:20;;;;;;;8.73;4.00;;;;;;;-4.13;100.00;99895.43;1789538;80;20997;-75
2021/03/09 03:51:52;;;;;;;9.87;4.77;;;;;;;-4.10;100.00;99895.75;1789447;80;21412;-74
2021/03/09 03:54:56;;;;;;;5.00;3.62;;;;;;;-4.09;100.00;99894.35;1789572;80;20986;-76
2021/03/09 03:57:34;;;;;;;5.60;3.47;;;;;;;-4.06;100.00;99899.92;1742487;82;21014;-75
2021/03/09 04:00:03;;;;;;;4.60;2.80;;;;;;;-4.07;100.00;99908.77;1758819;81;20918;-74
2021/03/09 04:02:32;;;;;;;4.40;2.57;;;;;;;-4.06;100.00;99910.02;1727262;83;21141;-76
2021/03/09 04:05:00;;;;;;;4.63;3.10;;;;;;;-4.05;100.00;99907.77;1758923;81;21402;-75
2021/03/09 04:07:28;;;;;;;3.43;3.10;;;;;;;-4.02;100.00;99918.19;1727047;83;21575;-75
2021/03/09 04:09:57;;;;;;;2.97;2.27;;;;;;;-4.00;100.00;99919.42;1759011;81;20996;-75
2021/03/09 04:12:28;;;;;;;2.27;2.07;;;;;;;-3.97;100.00;99919.72;1727025;81;21052;-76
2021/03/09 04:14:59;;;;;;;2.83;2.03;;;;;;;-3.95;100.00;99922.64;1758915;81;21213;-75
2021/03/09 04:17:27;;;;;;;3.10;1.70;;;;;;;-3.93;100.00;99918.16;1727437;83;21581;-75
2021/03/09 04:19:57;;;;;;;2.93;2.33;;;;;;;-3.90;100.00;99921.09;1758938;81;21087;-75
2021/03/09 04:22:25;;;;;;;2.20;2.00;;;;;;;-3.89;100.00;99922.34;1726971;83;21029;-76
2021/03/09 04:24:53;;;;;;;1.10;1.10;;;;;;;-3.88;100.00;99925.37;1758725;81;21190;-75
2021/03/09 04:27:21;;;;;;;1.23;1.23;;;;;;;-3.87;100.00;99928.86;1680046;83;21152;-75
2021/03/09 04:29:56;;;;;;;1.07;1.07;;;;;;;-3.88;100.00;99933.30;1713049;83;21825;-75
2021/03/09 04:32:25;;;;;;;0.80;0.80;;;;;;;-3.89;100.00;99929.42;1757811;81;20981;-75
2021/03/09 04:34:55;;;;;;;3.50;2.03;;;;;;;-3.88;100.00;99931.98;1740627;81;21638;-75
2021/03/09 04:37:24;;;;;;;3.80;2.53;;;;;;;-3.85;100.00;99928.31;1728716;82;21062;-75
2021/03/09 04:39:52;;;;;;;2.10;1.93;;;;;;;-3.86;100.00;99929.23;1732445;82;21101;-75
2021/03/09 04:42:21;;;;;;;1.70;1.57;;;;;;;-3.87;100.00;99928.39;1732735;82;21148;-77
2021/03/09 04:44:49;;;;;;;1.47;1.40;;;;;;;-3.86;100.00;99935.39;1732814;82;21014;-79
2021/03/09 04:47:18;;;;;;;3.03;1.53;;;;;;;-3.86;100.00;99941.99;1708791;82;21552;-78
2021/03/09 04:49:46;;;;;;;1.50;1.40;;;;;;;-3.87;100.00;99951.31;1776436;79;20990;-78
2021/03/09 04:52:14;;;;;;;1.30;1.20;;;;;;;-3.90;100.00;99952.80;1804713;79;20979;-78
2021/03/09 04:54:43;;;;;;;2.40;2.03;;;;;;;-3.90;100.00;99958.92;1804729;79;21640;-79
2021/03/09 04:57:11;;;;;;;2.00;1.90;;;;;;;-3.91;100.00;99961.64;1804690;79;21029;-79
2021/03/09 04:59:39;;;;;;;2.73;2.30;;;;;;;-3.92;100.00;99963.44;1804722;79;21006;-78
2021/03/09 05:02:09;;;;;;;1.73;1.60;;;;;;;-3.91;100.00;99953.72;1805004;79;21550;-78
2021/03/09 05:04:38;;;;;;;3.17;1.60;;;;;;;-3.90;100.00;99956.76;1804775;79;21014;-78
2021/03/09 05:07:06;;;;;;;1.57;1.47;;;;;;;-3.89;100.00;99973.01;1804785;79;21430;-78
2021/03/09 05:09:34;;;;;;;2.07;1.97;;;;;;;-3.87;100.00;99965.84;1804718;79;20938;-79
2021/03/09 05:12:03;;;;;;;1.50;1.40;;;;;;;-3.82;100.00;99967.78;1805019;79;20919;-78
2021/03/09 05:14:32;;;;;;;2.00;1.70;;;;;;;-3.79;100.00;99964.95;1805017;79;20966;-78
2021/03/09 05:17:00;;;;;;;0.97;0.97;;;;;;;-3.73;100.00;99977.02;1805143;79;21111;-78
2021/03/09 05:19:29;;;;;;;1.40;1.30;;;;;;;-3.67;100.00;99974.03;1805054;79;21204;-78
2021/03/09 05:21:57;;;;;;;2.67;1.90;;;;;;;-3.58;100.00;99981.45;1805050;79;20978;-79
2021/03/09 05:24:25;;;;;;;1.33;1.23;;;;;;;-3.52;100.00;99978.97;1804801;79;21041;-80
2021/03/09 05:26:54;;;;;;;4.90;2.63;;;;;;;-3.50;100.00;99980.58;1804911;79;20971;-77
2021/03/09 05:29:23;;;;;;;4.63;3.40;;;;;;;-3.45;100.00;99987.80;1788307;79;20976;-79
2021/03/09 05:31:50;;;;;;;2.27;2.07;;;;;;;-3.43;100.00;99994.33;1772971;81;21662;-79
2021/03/09 05:34:19;;;;;;;4.13;2.77;;;;;;;-3.37;100.00;99996.62;1785448;79;20966;-79
2021/03/09 05:36:47;;;;;;;1.90;1.80;;;;;;;-3.31;100.00;100006.02;1805044;79;21069;-78
2021/03/09 05:39:15;;;;;;;1.70;1.33;;;;;;;-3.25;100.00;100013.63;1804646;79;21053;-79
2021/03/09 05:41:43;;;;;;;1.20;1.20;;;;;;;-3.27;100.00;100022.96;1804658;79;20967;-78
2021/03/09 05:44:10;;;;;;;1.53;1.43;;;;;;;-3.28;100.00;100030.50;1804560;79;21361;-78
2021/03/09 05:46:38;;;;;;;2.27;1.97;;;;;;;-3.28;100.00;100034.94;1804451;79;20993;-79
2021/03/09 05:49:08;;;;;;;2.57;1.83;;;;;;;-3.28;100.00;100045.52;1777961;79;21417;-79
2021/03/09 05:51:38;;;;;;;25.23;8.57;;;;;;;-3.27;100.00;100046.77;1774773;79;21049;-78
2021/03/09 05:54:06;;;;;;;47.53;17.83;;;;;;;-3.21;100.00;100045.57;1804508;79;20994;-77
2021/03/09 05:56:34;;;;;;;24.90;7.60;;;;;;;-3.15;100.00;100039.09;1804475;79;21194;-78
2021/03/09 05:59:03;;;;;;;37.97;13.43;;;;;;;-3.06;100.00;100044.74;1804500;79;21057;-78
2021/03/09 06:01:32;;;;;;;13.40;5.87;;;;;;;-2.98;100.00;100054.89;1804501;79;21548;-78
2021/03/09 06:04:01;;;;;;;24.83;9.27;;;;;;;-2.92;100.00;100057.22;1804488;79;20922;-78
2021/03/09 06:06:29;;;;;;;16.27;6.20;;;;;;;-2.87;100.00;100052.53;1804655;79;20970;-78
2021/03/09 06:08:57;;;;;;;5.23;3.43;;;;;;;-2.87;100.00;100047.68;1804534;79;21543;-79
2021/03/09 06:11:25;;;;;;;13.43;6.00;;;;;;;-2.89;100.00;100049.56;1804508;79;20990;-80
2021/03/09 06:13:54;;;;;;;7.07;4.17;;;;;;;-2.89;100.00;100052.20;1788119;79;20953;-78
2021/03/09 06:16:22;;;;;;;7.30;3.17;;;;;;;-2.84;100.00;100065.20;1761704;80;20950;-80
2021/03/09 06:18:58;;;;;;;2.27;2.07;;;;;;;-2.79;100.00;100060.50;1787295;78;20929;-82
2021/03/09 06:21:27;;;;;;;2.13;1.83;;;;;;;-2.75;100.00;100056.73;1789330;78;21214;-79
2021/03/09 06:23:56;;;;;;;9.73;4.70;;;;;;;-2.63;100.00;100065.80;1788595;80;21025;-78
2021/03/09 06:26:37;;;;;;;2.30;1.90;;;;;;;-2.55;100.00;100067.52;1789699;79;20918;-78
2021/03/09 06:29:14;;;;;;;3.70;2.73;;;;;;;-2.49;100.00;100072.48;1766390;81;20994;-79
2021/03/09 06:31:59;;;;;;;2.60;2.27;;;;;;;-2.53;100.00;100092.14;1695919;84;21125;-80
2021/03/09 06:34:33;;;;;;;6.73;3.20;;;;;;;-2.58;100.00;100092.87;1672120;83;21594;-81
2021/03/09 06:37:20;;;;;;;4.53;3.50;;;;;;;-2.64;100.00;100095.84;1692767;83;28995;-81
2021/03/09 06:40:05;;;;;;;5.53;3.13;;;;;;;-2.75;100.00;100091.99;1693862;84;21036;-84
2021/03/09 06:42:36;;;;;;;3.33;2.00;;;;;;;-2.72;100.00;100096.28;1695150;83;21052;-85
2021/03/09 06:45:11;;;;;;;4.97;3.03;;;;;;;-2.62;100.00;100093.95;1665321;86;20960;-84
2021/03/09 06:47:48;;;;;;;2.13;1.93;;;;;;;-2.55;100.00;100094.87;1694762;84;21509;-78
2021/03/09 06:50:34;;;;;;;7.20;3.43;;;;;;;-2.38;100.00;100091.25;1800194;78;25947;-79
2021/03/09 06:53:04;;;;;;;7.47;4.40;;;;;;;-2.34;100.00;100095.45;1764918;80;20970;-77
2021/03/09 06:55:33;;;;;;;4.00;2.70;;;;;;;-2.19;100.00;100110.92;1735006;81;21447;-78
2021/03/09 06:58:11;;;;;;;6.20;3.03;;;;;;;-2.02;100.00;100105.12;1735619;82;20982;-79
2021/03/09 07:00:40;;;;;;;2.57;1.73;;;;;;;-1.87;100.00;100121.94;1735787;81;21072;-76
2021/03/09 07:03:34;;;;;;;4.37;2.00;;;;;;;-1.85;100.00;100118.24;1735212;82;21021;-81
2021/03/09 07:06:03;;;;;;;4.90;3.17;;;;;;;-1.95;100.00;100111.31;1736041;82;21085;-83
2021/03/09 07:08:31;;;;;;;13.13;5.47;;;;;;;-1.99;100.00;100117.72;1736011;81;21161;-80
2021/03/09 07:11:00;;;;;;;15.00;6.00;;;;;;;-1.93;100.00;100120.47;1736768;82;21017;-79
2021/03/09 07:13:28;;;;;;;6.17;3.30;;;;;;;-1.81;100.00;100122.41;1736208;82;21033;-79
2021/03/09 07:15:59;;;;;;;27.70;14.50;;;;;;;-1.58;100.00;100126.34;1737254;82;21006;-82
2021/03/09 07:18:29;;;;;;;20.80;9.63;;;;;;;-1.36;100.00;100123.76;1737687;82;21479;-84
2021/03/09 07:21:02;;;;;;;10.95;4.55;;;;;;;-1.15;100.00;100124.25;1738942;80;21207;-85
2021/03/09 07:23:36;;;;;;;7.00;4.10;;;;;;;-0.97;100.00;100131.55;1713636;82;20975;-83
2021/03/09 07:26:08;;;;;;;11.73;5.12;;;;;;;-0.93;100.00;100124.25;1734778;82;21033;-83
2021/03/09 07:28:42;;;;;;;19.47;8.17;;;;;;;-0.93;100.00;100127.75;1737612;82;20950;-82
2021/03/09 07:31:10;;;;;;;9.43;4.83;;;;;;;-0.89;100.00;100132.39;1736799;81;21544;-76
2021/03/09 07:33:40;;;;;;;4.00;2.47;;;;;;;-0.74;100.00;100129.23;1707589;83;21136;-80
2021/03/09 07:36:09;;;;;;;16.23;6.97;;;;;;;-0.53;100.00;100119.94;1706073;83;20981;-82
2021/03/09 07:38:38;;;;;;;1.97;1.70;;;;;;;-0.37;100.00;100110.50;1707481;83;21423;-82
2021/03/09 07:41:08;;;;;;;7.20;3.73;;;;;;;-0.21;100.00;100116.52;1709214;83;21224;-81
2021/03/09 07:43:37;;;;;;;4.47;3.03;;;;;;;-0.06;100.00;100120.44;1684214;84;20962;-78
2021/03/09 07:46:09;;;;;;;10.20;4.73;;;;;;;0.13;100.00;100121.41;1741747;81;21658;-85
2021/03/09 07:48:37;;;;;;;5.07;3.20;;;;;;;0.25;100.00;100125.03;1765946;79;20994;-83
2021/03/09 07:51:07;;;;;;;16.70;6.73;;;;;;;0.30;100.00;100118.94;1747127;80;21005;-83
2021/03/09 07:53:35;;;;;;;10.43;4.83;;;;;;;0.32;100.00;100119.22;1766627;80;21092;-79
2021/03/09 07:56:13;;;;;;;15.17;6.67;;;;;;;0.51;100.00;100122.83;1761593;81;20923;-79
2021/03/09 07:58:41;;;;;;;11.73;5.73;;;;;;;0.70;100.00;100119.73;1759783;81;21040;-80
2021/03/09 08:01:10;;;;;;;2.97;1.80;;;;;;;0.62;100.00;100123.88;1753226;81;20978;-79
2021/03/09 08:03:44;;;;;;;7.80;3.43;;;;;;;0.45;100.00;100125.05;1736465;81;21030;-79
2021/03/09 08:06:16;;;;;;;11.13;5.20;;;;;;;0.27;100.00;100127.98;1729971;82;21046;-81
2021/03/09 08:08:52;;;;;;;11.33;5.43;;;;;;;0.15;100.00;100134.12;1730474;82;21117;-82
2021/03/09 08:11:26;;;;;;;8.73;3.70;;;;;;;0.07;100.00;100131.98;1742222;81;21311;-84
2021/03/09 08:14:08;;;;;;;11.93;5.30;;;;;;;-0.03;100.00;100130.39;1747224;81;24540;-82
2021/03/09 08:16:40;;;;;;;6.00;3.75;;;;;;;0.00;100.00;100134.67;1732741;81;21058;-76
2021/03/09 08:19:31;;;;;;;10.67;5.50;;;;;;;0.26;100.00;100131.59;1688271;83;21600;-74
2021/03/09 08:22:03;;;;;;;10.00;4.60;;;;;;;0.57;100.00;100128.20;1681940;84;21633;-82
2021/03/09 08:24:48;;;;;;;19.87;5.93;;;;;;;0.60;100.00;100133.77;1683255;83;21215;-77
2021/03/09 08:27:36;;;;;;;13.83;5.20;;;;;;;0.46;99.49;100143.56;1703285;83;21086;-77
2021/03/09 08:30:24;;;;;;;11.37;5.60;;;;;;;0.25;99.14;100142.33;1700661;83;21158;-77
2021/03/09 08:32:52;;;;;;;8.53;5.53;;;;;;;0.05;100.00;100138.34;1677506;84;21016;-76
2021/03/09 08:35:33;;;;;;;10.83;5.17;;;;;;;-0.15;100.00;100144.48;1699655;84;21618;-77
2021/03/09 08:38:12;;;;;;;18.30;7.53;;;;;;;-0.13;100.00;100142.58;1696441;84;21842;-76
2021/03/09 08:41:06;;;;;;;10.07;4.80;;;;;;;0.16;100.00;100139.34;1682414;83;21016;-77
2021/03/09 08:43:35;;;;;;;9.60;4.43;;;;;;;0.40;100.00;100139.13;1681316;83;21825;-78
2021/03/09 08:46:03;;;;;;;9.53;4.80;;;;;;;0.32;100.00;100152.47;1698499;84;21608;-77
2021/03/09 08:48:45;;;;;;;4.13;2.20;;;;;;;0.17;100.00;100156.14;1678330;84;21011;-75
2021/03/09 08:51:42;;;;;;;3.30;1.87;;;;;;;0.07;99.21;100161.23;1679009;83;21660;-80
2021/03/09 08:54:31;;;;;;;4.60;2.03;;;;;;;-0.04;98.18;100158.41;1819670;77;26755;-76
2021/03/09 08:57:02;;;;;;;10.30;5.00;;;;;;;-0.12;98.88;100163.39;1713292;83;21010;-77
2021/03/09 08:59:32;;;;;;;12.53;5.97;;;;;;;-0.20;97.50;100163.87;1713983;83;21645;-73
2021/03/09 09:02:15;;;;;;;13.57;5.97;;;;;;;-0.29;98.66;100175.94;1716166;83;21020;-76
2021/03/09 09:05:03;;;;;;;3.50;3.10;;;;;;;-0.23;100.00;100185.31;1845890;77;26686;-79
2021/03/09 09:07:40;;;;;;;3.30;2.00;;;;;;;-0.26;100.00;100171.77;1813693;78;21013;-77
2021/03/09 09:10:21;;;;;;;6.53;3.43;;;;;;;-0.16;100.00;100169.83;1740130;82;22130;-78
2021/03/09 09:12:51;;;;;;;2.97;2.30;;;;;;;0.30;100.00;100177.00;1713931;83;21043;-76
2021/03/09 09:16:08;;;;;;;4.70;3.03;;;;;;;0.71;100.00;100175.16;1743866;82;21272;-78
2021/03/09 09:18:43;;;;;;;1.90;1.30;;;;;;;0.98;100.00;100191.05;1897188;74;26732;-78
2021/03/09 09:21:11;;;;;;;31.93;13.20;;;;;;;0.79;96.63;100193.27;1857644;76;21040;-79
2021/03/09 09:23:41;;;;;;;6.20;3.87;;;;;;;0.53;96.04;100188.76;1864031;76;21278;-80
2021/03/09 09:26:12;;;;;;;3.33;2.60;;;;;;;0.31;95.78;100194.64;1810753;78;21017;-79
2021/03/09 09:31:22;;;;;;;1.60;1.50;;;;;;;0.16;96.86;100196.52;1852789;76;26557;-80
2021/03/09 09:33:52;;;;;;;1.30;1.20;;;;;;;0.08;96.86;100203.29;1777357;80;21086;-77
2021/03/09 09:36:23;;;;;;;9.17;4.20;;;;;;;-0.02;98.08;100210.54;1824934;76;21020;-79
2021/03/09 09:38:54;;;;;;;10.73;4.77;;;;;;;-0.09;97.31;100207.91;1822243;78;21606;-82
2021/03/09 09:41:23;;;;;;;13.93;6.73;;;;;;;-0.23;97.57;100217.20;1822784;78;21038;-79
2021/03/09 09:43:51;;;;;;;10.93;4.77;;;;;;;-0.29;100.00;100214.95;1822695;78;21053;-77
2021/03/09 09:46:25;;;;;;;8.30;2.83;;;;;;;-0.37;100.00;100213.24;1822919;78;20970;-79
2021/03/09 09:48:55;;;;;;;7.00;3.33;;;;;;;-0.43;100.00;100215.34;1711558;83;21197;-81
2021/03/09 09:51:25;;;;;;;4.70;2.70;;;;;;;-0.46;97.78;100218.66;1710940;83;21093;-77
2021/03/09 09:53:53;;;;;;;7.97;3.37;;;;;;;-0.48;96.78;100219.23;1710956;83;21033;-77
2021/03/09 09:56:25;;;;;;;5.47;3.27;;;;;;;-0.49;98.51;100222.86;1734238;80;21175;-81
2021/03/09 09:58:59;;;;;;;6.60;3.70;;;;;;;-0.52;99.83;100216.41;1728301;83;21575;-80
2021/03/09 10:01:52;;;;;;;;;;;;;;;;;;;;;
2021/03/09 10:04:21;;;;;;;1.87;1.50;;;;;;;-0.45;100.00;100219.05;1847381;76;26667;-81
2021/03/09 10:06:50;;;;;;;5.07;2.40;;;;;;;-0.37;100.00;100225.20;1823013;77;21368;-79
2021/03/09 10:09:24;;;;;;;3.23;1.60;;;;;;;-0.29;100.00;100230.90;1848691;77;21194;-79
2021/03/09 10:12:01;;;;;;;2.37;2.07;;;;;;;-0.26;100.00;100232.05;1838600;77;20922;-81
2021/03/09 10:14:32;;;;;;;3.43;2.50;;;;;;;-0.41;100.00;100229.86;1821981;78;20993;-81
2021/03/09 10:17:02;;;;;;;3.80;2.80;;;;;;;-0.64;100.00;100232.62;1823183;78;20985;-80
2021/03/09 10:19:37;;;;;;;5.37;2.80;;;;;;;-0.79;100.00;100229.12;1791473;78;21048;-76
2021/03/09 10:22:17;;;;;;;19.63;8.07;;;;;;;-0.80;100.00;100234.03;1758926;80;22105;-77
2021/03/09 10:24:45;;;;;;;2.10;2.00;;;;;;;-0.82;100.00;100231.47;1752033;81;21021;-77
2021/03/09 10:27:24;;;;;;;2.13;1.93;;;;;;;-0.74;100.00;100234.13;1760626;81;21044;-79
2021/03/09 10:29:55;;;;;;;9.90;4.67;;;;;;;-0.77;100.00;100235.18;1760425;81;21028;-78
2021/03/09 10:32:23;;;;;;;1.87;1.50;;;;;;;-0.81;100.00;100227.88;1764021;81;21603;-82
2021/03/09 10:34:54;;;;;;;7.83;2.87;;;;;;;-0.66;100.00;100219.43;1748198;81;21418;-83
2021/03/09 10:37:39;;;;;;;6.00;2.60;;;;;;;-0.33;100.00;100231.56;1746629;81;21054;-77
2021/03/09 10:40:13;;;;;;;7.20;2.17;;;;;;;0.04;100.00;100221.73;1743465;81;21116;-77
2021/03/09 10:42:49;;;;;;;3.37;1.63;;;;;;;0.14;95.55;100229.02;1724644;83;21092;-79
2021/03/09 10:45:26;;;;;;;10.20;3.33;;;;;;;-0.02;94.06;100227.82;1724593;83;21211;-77
2021/03/09 10:48:01;;;;;;;8.40;3.30;;;;;;;-0.22;97.08;100237.53;1724566;83;21154;-77
2021/03/09 10:50:33;;;;;;;4.63;2.27;;;;;;;-0.35;100.00;100240.12;1740655;82;21140;-79
2021/03/09 10:53:09;;;;;;;8.73;3.80;;;;;;;-0.40;100.00;100243.05;1855810;76;27229;-79
2021/03/09 10:55:39;;;;;;;5.10;3.30;;;;;;;-0.51;100.00;100253.50;1836076;76;20921;-76
2021/03/09 10:58:07;;;;;;;12.67;2.47;;;;;;;-0.53;100.00;100240.80;1836209;78;21606;-82
2021/03/09 11:00:36;;;;;;;5.90;3.37;;;;;;;-0.58;100.00;100251.69;1836493;78;20957;-79
2021/03/09 11:03:05;;;;;;;5.57;3.43;;;;;;;-0.60;100.00;100244.30;1806954;78;20946;-78
2021/03/09 11:05:33;;;;;;;5.80;2.93;;;;;;;-0.52;100.00;100245.14;1740526;80;21042;-78
2021/03/09 11:08:01;;;;;;;6.23;3.20;;;;;;;-0.53;100.00;100247.44;1763310;81;21014;-77
2021/03/09 11:10:29;;;;;;;7.30;3.30;;;;;;;-0.55;100.00;100253.29;1760563;81;21141;-81
2021/03/09 11:12:57;;;;;;;2.03;1.87;;;;;;;-0.48;100.00;100249.78;1747542;82;20978;-78
2021/03/09 11:15:25;;;;;;;5.13;3.07;;;;;;;-0.39;100.00;100247.42;1768416;81;21013;-74
2021/03/09 11:17:53;;;;;;;4.53;2.20;;;;;;;-0.35;100.00;100244.55;1727686;82;21117;-75
2021/03/09 11:20:22;;;;;;;1.97;1.47;;;;;;;-0.32;100.00;100237.73;1740057;82;21069;-79
2021/03/09 11:22:51;;;;;;;3.70;2.00;;;;;;;-0.28;100.00;100242.77;1750297;81;21039;-79
2021/03/09 11:25:21;;;;;;;4.70;2.93;;;;;;;-0.20;100.00;100237.80;1741268;81;21089;-79
2021/03/09 11:27:49;;;;;;;5.47;3.13;;;;;;;-0.10;100.00;100239.89;1741561;82;20975;-81
2021/03/09 11:30:20;;;;;;;2.07;1.93;;;;;;;0.03;100.00;100242.61;1768084;81;21001;-81
2021/03/09 11:32:48;;;;;;;5.73;3.13;;;;;;;0.10;100.00;100247.42;1755226;81;21004;-80
2021/03/09 11:35:16;;;;;;;2.13;1.93;;;;;;;0.26;100.00;100256.59;1744898;80;21819;-79
2021/03/09 11:37:44;;;;;;;2.73;2.27;;;;;;;0.35;100.00;100252.03;1764813;81;21016;-79
2021/03/09 11:40:14;;;;;;;4.53;1.80;;;;;;;0.37;100.00;100250.12;1766819;81;20985;-79
2021/03/09 11:42:42;;;;;;;5.60;2.03;;;;;;;0.32;100.00;100250.89;1759848;81;21028;-74
2021/03/09 11:45:10;;;;;;;2.57;1.73;;;;;;;0.28;100.00;100254.68;1750493;81;21526;-78